Time;durP1;ratioP1;P1;durP2;ratioP2;P2;SDS_P1;SDS_P2;PMS_P1;PMS_P2;Temp;Humidity;BMP_temperature;BMP_pressure;BME280_temperature;BME280_humidity;BME280_pressure;Samples;Min_cycle;Max_cycle;Signal;HPM_P1;HPM_P2
2023/03/27 03:55:52;;;;;;;2.58;2.30;;;;;;;7.95;100.00;98525.81;6151005;28;20092;-84
2023/03/27 03:58:55;;;;;;;2.97;2.67;;;;;;;7.91;100.00;98529.94;5275759;33;34044;-88
2023/03/27 04:01:59;;;;;;;2.80;2.60;;;;;;;7.92;100.00;98522.72;5262118;33;34581;-88
2023/03/27 04:05:03;;;;;;;4.62;3.28;;;;;;;7.92;100.00;98531.56;5262265;33;33427;-85
2023/03/27 04:08:14;;;;;;;5.68;3.83;;;;;;;7.89;100.00;98523.13;5262436;33;33641;-84
2023/03/27 04:11:20;;;;;;;5.28;3.83;;;;;;;7.91;100.00;98521.09;5261763;33;33611;-84
2023/03/27 04:14:23;;;;;;;5.80;4.35;;;;;;;7.91;100.00;98521.09;5260995;33;34257;-84
2023/03/27 04:17:27;;;;;;;7.05;3.90;;;;;;;7.95;100.00;98514.25;5261559;33;33378;-84
2023/03/27 04:20:31;;;;;;;4.72;3.58;;;;;;;7.90;100.00;98524.81;5273222;33;34852;-84
2023/03/27 04:23:35;;;;;;;6.18;4.12;;;;;;;7.87;100.00;98520.69;5269011;33;33393;-84
2023/03/27 04:26:37;;;;;;;8.15;4.32;;;;;;;7.90;100.00;98520.25;5279182;33;33979;-84
2023/03/27 04:29:46;;;;;;;5.68;4.43;;;;;;;7.99;100.00;98514.69;5261167;33;33407;-85
2023/03/27 04:33:01;;;;;;;9.23;5.03;;;;;;;7.98;100.00;98515.72;5273447;33;34273;-85
2023/03/27 04:36:08;;;;;;;8.52;4.90;;;;;;;7.90;100.00;98516.75;5261298;33;34874;-85
2023/03/27 04:39:15;;;;;;;9.07;5.53;;;;;;;7.91;100.00;98516.53;5249491;33;34196;-85
2023/03/27 04:42:22;;;;;;;9.88;5.62;;;;;;;7.86;100.00;98518.19;5261021;33;34354;-85
2023/03/27 04:45:26;;;;;;;10.75;5.15;;;;;;;7.85;100.00;98520.03;5261109;33;34177;-85
2023/03/27 04:48:29;;;;;;;8.80;5.47;;;;;;;7.90;100.00;98519.44;5261050;33;33962;-85
2023/03/27 04:51:32;;;;;;;9.70;5.50;;;;;;;7.85;100.00;98514.69;5261014;33;33527;-85
2023/03/27 04:54:35;;;;;;;7.72;5.15;;;;;;;7.84;100.00;98512.19;5274056;33;33523;-85
2023/03/27 04:57:38;;;;;;;8.25;5.28;;;;;;;7.81;100.00;98517.97;5260708;33;33692;-85
2023/03/27 05:00:42;;;;;;;10.60;5.50;;;;;;;7.78;100.00;98515.72;5273778;33;34900;-85
2023/03/27 05:03:48;;;;;;;7.82;5.22;;;;;;;7.74;100.00;98507.25;5263094;33;33600;-85
2023/03/27 05:06:52;;;;;;;6.55;4.72;;;;;;;7.72;100.00;98502.13;5289388;33;34938;-86
2023/03/27 05:09:56;;;;;;;10.98;4.60;;;;;;;7.76;100.00;98499.84;5273832;33;34066;-85
2023/03/27 05:13:02;;;;;;;7.35;5.07;;;;;;;7.76;100.00;98497.19;5273455;33;34868;-85
2023/03/27 05:16:10;;;;;;;8.52;5.68;;;;;;;7.75;100.00;98495.53;5261603;33;34043;-85
2023/03/27 05:19:14;;;;;;;7.22;5.07;;;;;;;7.78;100.00;98488.91;5272742;33;33473;-85
2023/03/27 05:22:17;;;;;;;6.90;4.65;;;;;;;7.71;100.00;98488.94;5250796;33;34248;-85
2023/03/27 05:25:23;;;;;;;7.97;4.78;;;;;;;7.69;100.00;98489.16;5281848;33;32954;-85
2023/03/27 05:28:27;;;;;;;4.93;4.32;;;;;;;7.70;100.00;98487.28;5270944;33;33529;-85
2023/03/27 05:31:34;;;;;;;6.07;4.28;;;;;;;7.59;100.00;98486.03;5259860;33;33857;-89
2023/03/27 05:34:37;;;;;;;6.43;4.12;;;;;;;7.65;100.00;98485.22;5249284;33;33846;-90
2023/03/27 05:37:51;;;;;;;9.00;4.50;;;;;;;7.67;100.00;98485.03;5259595;33;33146;-86
2023/03/27 05:40:56;;;;;;;6.00;4.18;;;;;;;7.64;100.00;98477.41;5287545;33;33126;-86
2023/03/27 05:44:00;;;;;;;4.78;3.53;;;;;;;7.61;100.00;98478.63;5288070;33;33488;-86
2023/03/27 05:47:11;;;;;;;4.57;3.33;;;;;;;7.53;100.00;98472.66;5275714;33;33470;-86
2023/03/27 05:50:17;;;;;;;6.53;4.10;;;;;;;7.61;100.00;98467.91;5276999;33;32541;-85
2023/03/27 05:53:19;;;;;;;6.70;4.20;;;;;;;7.64;100.00;98462.16;5280554;33;34677;-85
2023/03/27 05:56:31;;;;;;;7.10;4.45;;;;;;;7.65;100.00;98462.97;5281234;33;33526;-86
2023/03/27 05:59:34;;;;;;;4.95;3.60;;;;;;;7.59;100.00;98464.62;5292007;33;33812;-86
2023/03/27 06:02:41;;;;;;;4.62;3.60;;;;;;;7.54;100.00;98460.91;5282478;33;34661;-86
2023/03/27 06:05:45;;;;;;;5.47;3.65;;;;;;;7.57;100.00;98447.09;5284606;33;34733;-86
2023/03/27 06:08:48;;;;;;;6.15;3.80;;;;;;;7.63;100.00;98451.63;5273649;33;33738;-86
2023/03/27 06:11:52;;;;;;;6.20;3.70;;;;;;;7.61;100.00;98453.72;5274756;33;33567;-86
2023/03/27 06:14:55;;;;;;;4.28;3.50;;;;;;;7.62;100.00;98450.00;5262608;33;33602;-86
2023/03/27 06:17:58;;;;;;;4.95;3.85;;;;;;;7.57;100.00;98445.25;5285156;33;33056;-86
2023/03/27 06:21:05;;;;;;;3.58;2.35;;;;;;;7.68;100.00;98446.50;5275209;33;33397;-86
2023/03/27 06:24:09;;;;;;;4.43;2.80;;;;;;;7.60;100.00;98449.38;5272703;33;33431;-86
2023/03/27 06:27:12;;;;;;;3.83;2.70;;;;;;;7.53;100.00;98445.87;5265925;33;33534;-86
2023/03/27 06:30:18;;;;;;;2.92;2.58;;;;;;;7.56;100.00;98448.16;5280215;33;33885;-86
2023/03/27 06:33:26;;;;;;;2.90;2.25;;;;;;;7.47;100.00;98451.03;5272520;33;32484;-86
2023/03/27 06:36:31;;;;;;;2.15;2.00;;;;;;;7.44;100.00;98448.75;5279350;33;33971;-86
2023/03/27 06:39:34;;;;;;;2.08;1.87;;;;;;;7.44;100.00;98443.41;5259886;33;33568;-86
2023/03/27 06:42:37;;;;;;;2.72;2.40;;;;;;;7.43;100.00;98436.41;5283229;33;33506;-86
2023/03/27 06:45:53;;;;;;;6.53;2.20;;;;;;;7.39;100.00;98445.03;5279372;33;33121;-86
2023/03/27 06:49:05;;;;;;;1.90;1.77;;;;;;;7.40;100.00;98449.34;5265177;33;33405;-86
2023/03/27 06:52:09;;;;;;;4.25;2.40;;;;;;;7.40;100.00;98441.31;5278688;33;33575;-86
2023/03/27 06:55:14;;;;;;;3.55;2.03;;;;;;;7.50;100.00;98445.25;5293464;33;33934;-90
2023/03/27 06:58:22;;;;;;;2.17;1.87;;;;;;;7.41;100.00;98440.31;5283812;33;33991;-91
2023/03/27 07:01:26;;;;;;;1.83;1.73;;;;;;;7.48;100.00;98439.25;5271912;33;33717;-87
2023/03/27 07:04:30;;;;;;;1.80;1.62;;;;;;;7.45;100.00;98433.50;5277292;33;33443;-87
2023/03/27 07:07:33;;;;;;;2.62;1.83;;;;;;;7.44;100.00;98439.91;5272673;33;34209;-86
2023/03/27 07:10:37;;;;;;;4.62;1.95;;;;;;;7.48;100.00;98439.25;5277090;33;33626;-86
2023/03/27 07:13:41;;;;;;;3.72;2.03;;;;;;;7.53;100.00;98443.19;5289376;33;33669;-86
2023/03/27 07:16:46;;;;;;;3.15;1.87;;;;;;;7.39;100.00;98437.81;5292678;33;33436;-86
2023/03/27 07:19:49;;;;;;;3.75;2.00;;;;;;;7.34;100.00;98447.50;5259923;33;33222;-86
2023/03/27 07:22:56;;;;;;;5.32;2.30;;;;;;;7.33;100.00;98460.06;5272454;33;33703;-86
2023/03/27 07:26:01;;;;;;;2.30;1.93;;;;;;;7.32;100.00;98463.78;5286663;33;34229;-87
2023/03/27 07:29:09;;;;;;;2.55;2.25;;;;;;;7.36;100.00;98454.31;5271249;33;33995;-86
2023/03/27 07:32:12;;;;;;;3.85;2.33;;;;;;;7.40;100.00;98466.25;5264588;33;32225;-86
2023/03/27 07:35:32;;;;;;;2.20;2.00;;;;;;;7.37;100.00;98460.47;5273716;33;33469;-86
2023/03/27 07:38:39;;;;;;;5.18;1.85;;;;;;;7.46;100.00;98454.72;5271785;33;31973;-86
2023/03/27 07:41:44;;;;;;;3.60;1.95;;;;;;;7.47;100.00;98459.06;5286614;33;32390;-85
2023/03/27 07:44:48;;;;;;;1.73;1.62;;;;;;;7.49;100.00;98459.69;5268208;33;33888;-86
2023/03/27 07:47:51;;;;;;;2.37;2.05;;;;;;;7.55;100.00;98452.69;5290679;33;33867;-86
2023/03/27 07:51:01;;;;;;;1.87;1.77;;;;;;;7.40;100.00;98468.94;5262371;33;33481;-86
2023/03/27 07:54:15;;;;;;;3.35;2.22;;;;;;;7.38;100.00;98471.00;5288074;33;32482;-86
2023/03/27 07:57:21;;;;;;;3.90;2.05;;;;;;;7.43;100.00;98470.34;5271946;33;33505;-85
2023/03/27 08:00:34;;;;;;;2.17;2.00;;;;;;;7.43;100.00;98465.84;5284598;33;33095;-86
2023/03/27 08:03:38;;;;;;;4.00;2.25;;;;;;;7.46;100.00;98465.44;5271222;33;33580;-86
2023/03/27 08:06:42;;;;;;;2.85;2.10;;;;;;;7.50;100.00;98465.84;5258904;33;33550;-86
2023/03/27 08:09:47;;;;;;;2.40;2.00;;;;;;;7.52;100.00;98471.84;5275636;33;33503;-86
2023/03/27 08:12:50;;;;;;;3.30;2.08;;;;;;;7.43;100.00;98475.72;5294228;33;36100;-87
2023/03/27 08:16:02;;;;;;;2.45;2.05;;;;;;;7.39;100.00;98461.09;5297471;33;33890;-88
2023/03/27 08:19:05;;;;;;;2.92;2.10;;;;;;;7.38;100.00;98460.28;5301856;33;34926;-90
2023/03/27 08:22:09;;;;;;;2.65;2.45;;;;;;;7.34;100.00;98469.75;5261593;33;32946;-88
2023/03/27 08:25:15;;;;;;;2.87;2.30;;;;;;;7.37;100.00;98466.69;5262840;33;34868;-86
2023/03/27 08:28:19;;;;;;;3.35;2.10;;;;;;;7.37;100.00;98477.37;5282602;33;32944;-88
2023/03/27 08:31:22;;;;;;;4.15;2.60;;;;;;;7.40;100.00;98479.66;5250557;33;33379;-89
2023/03/27 08:34:26;;;;;;;3.03;2.75;;;;;;;7.34;100.00;98485.81;5273857;33;33999;-88
2023/03/27 08:37:29;;;;;;;3.58;2.30;;;;;;;7.34;100.00;98487.66;5273484;33;32486;-88
2023/03/27 08:40:46;;;;;;;3.65;2.33;;;;;;;7.26;100.00;98483.34;5287053;33;34200;-88
2023/03/27 08:43:50;;;;;;;3.75;2.50;;;;;;;7.31;100.00;98491.56;5273473;33;33180;-88
2023/03/27 08:47:10;;;;;;;2.75;2.55;;;;;;;7.36;100.00;98489.09;5271470;33;32845;-87
2023/03/27 08:50:37;;;;;;;3.05;2.42;;;;;;;7.37;100.00;98493.44;5285332;33;32415;-87
2023/03/27 08:54:05;;;;;;;2.58;2.37;;;;;;;7.45;100.00;98489.72;5283438;33;33515;-87
2023/03/27 08:57:18;;;;;;;3.20;2.90;;;;;;;7.46;100.00;98497.56;5284496;33;33218;-87
2023/03/27 09:00:30;;;;;;;2.83;2.47;;;;;;;7.52;100.00;98503.97;5282246;33;32373;-88
2023/03/27 09:03:45;;;;;;;2.92;2.22;;;;;;;7.46;100.00;98502.94;5282183;33;33476;-88
2023/03/27 09:07:08;;;;;;;5.43;2.30;;;;;;;7.41;100.00;98505.38;5282402;33;33329;-88
2023/03/27 09:10:22;;;;;;;2.72;2.50;;;;;;;7.40;100.00;98509.09;5284956;33;32907;-87
2023/03/27 09:13:38;;;;;;;2.40;2.15;;;;;;;7.41;100.00;98507.25;5269397;33;33403;-87
2023/03/27 09:16:48;;;;;;;2.72;2.28;;;;;;;7.39;100.00;98506.59;5283415;33;33494;-88
2023/03/27 09:20:19;;;;;;;3.12;2.83;;;;;;;7.45;100.00;98513.81;5284467;33;34641;-87
2023/03/27 09:23:26;;;;;;;4.40;2.60;;;;;;;7.50;100.00;98522.06;5271543;33;33399;-88
2023/03/27 09:26:36;;;;;;;4.22;3.03;;;;;;;7.50;100.00;98519.41;5283099;33;33369;-87
2023/03/27 09:30:14;;;;;;;3.35;2.90;;;;;;;7.49;100.00;98521.25;5282458;33;34138;-87
2023/03/27 09:33:18;;;;;;;5.93;3.10;;;;;;;7.50;100.00;98525.56;5282606;33;34800;-87
2023/03/27 09:36:23;;;;;;;3.92;2.80;;;;;;;7.55;100.00;98532.19;5259207;33;34597;-86
2023/03/27 09:39:32;;;;;;;5.28;2.90;;;;;;;7.52;100.00;98533.41;5258337;33;33710;-86
2023/03/27 09:42:40;;;;;;;4.30;2.83;;;;;;;7.49;100.00;98533.81;5292409;33;33916;-91
2023/03/27 09:45:46;;;;;;;3.47;2.65;;;;;;;7.48;100.00;98546.38;5286246;33;33218;-91
2023/03/27 09:49:10;;;;;;;2.72;2.53;;;;;;;7.39;100.00;98536.06;5287026;33;33565;-87
2023/03/27 09:52:37;;;;;;;4.30;2.90;;;;;;;7.29;100.00;98549.84;5285031;33;33118;-87
2023/03/27 09:55:49;;;;;;;4.15;3.03;;;;;;;7.23;100.00;98559.50;5293853;33;34656;-87
2023/03/27 09:58:56;;;;;;;3.28;2.95;;;;;;;7.17;100.00;98554.13;5274111;33;32841;-87
2023/03/27 10:02:15;;;;;;;3.28;2.90;;;;;;;7.12;100.00;98560.06;5274830;33;33292;-87
2023/03/27 10:05:20;;;;;;;3.60;2.87;;;;;;;7.16;100.00;98565.84;5289120;33;33536;-87
2023/03/27 10:08:24;;;;;;;2.67;2.30;;;;;;;7.18;100.00;98561.94;5286730;33;33209;-87
2023/03/27 10:11:32;;;;;;;6.57;2.80;;;;;;;7.10;100.00;98574.66;5281724;33;34801;-87
2023/03/27 10:14:55;;;;;;;3.17;2.50;;;;;;;7.06;100.00;98570.75;5286566;33;33973;-87
2023/03/27 10:18:30;;;;;;;3.22;2.80;;;;;;;7.08;100.00;98576.72;5274399;33;33147;-87
2023/03/27 10:21:42;;;;;;;3.70;2.30;;;;;;;7.04;100.00;98576.28;5271036;33;33967;-91
2023/03/27 10:24:46;;;;;;;3.75;2.55;;;;;;;6.95;100.00;98570.28;5281728;33;34417;-87
2023/03/27 10:27:51;;;;;;;4.20;2.70;;;;;;;6.87;100.00;98572.31;5277859;33;33187;-87
2023/03/27 10:31:02;;;;;;;4.85;2.00;;;;;;;6.88;100.00;98565.94;5285543;33;33151;-87
2023/03/27 10:34:27;;;;;;;3.30;2.30;;;;;;;6.84;100.00;98575.37;5301992;33;33943;-87
2023/03/27 10:37:40;;;;;;;3.28;2.10;;;;;;;6.90;100.00;98579.94;5281347;33;34195;-87
2023/03/27 10:40:55;;;;;;;3.17;2.20;;;;;;;6.84;100.00;98580.72;5292559;33;34364;-87
2023/03/27 10:44:16;;;;;;;3.25;2.10;;;;;;;6.91;100.00;98581.59;5259480;33;34413;-87
2023/03/27 10:47:26;;;;;;;2.35;2.10;;;;;;;6.87;100.00;98599.88;5285903;33;34244;-87
2023/03/27 10:50:52;;;;;;;3.10;2.17;;;;;;;6.87;100.00;98593.69;5287028;33;34780;-87
2023/03/27 10:54:01;;;;;;;2.72;2.53;;;;;;;6.81;100.00;98588.12;5289726;33;34850;-87
2023/03/27 10:57:18;;;;;;;2.22;2.00;;;;;;;6.79;100.00;98597.38;5289911;33;33839;-87
2023/03/27 11:00:31;;;;;;;1.92;1.75;;;;;;;6.79;100.00;98598.19;5275771;33;33738;-91
2023/03/27 11:03:51;;;;;;;2.03;1.92;;;;;;;6.61;100.00;98597.03;5279071;33;33486;-87
2023/03/27 11:06:59;;;;;;;2.00;1.87;;;;;;;6.66;100.00;98597.28;5279270;33;33509;-87
2023/03/27 11:10:13;;;;;;;2.10;1.83;;;;;;;6.67;100.00;98599.78;5279068;33;34973;-87
2023/03/27 11:13:26;;;;;;;1.80;1.70;;;;;;;6.61;100.00;98605.06;5280735;33;33565;-87
2023/03/27 11:16:36;;;;;;;1.67;1.58;;;;;;;6.65;100.00;98607.16;5283611;33;34442;-87
2023/03/27 11:20:15;;;;;;;1.40;1.30;;;;;;;6.63;100.00;98595.81;5286517;33;33355;-87
2023/03/27 11:23:41;;;;;;;;;;;;;;;6.59;100.00;98608.78;5287844;33;32143;-87
2023/03/27 11:27:00;;;;;;;1.35;1.25;;;;;;;6.55;100.00;98617.38;5288309;33;34325;-87
2023/03/27 11:30:07;;;;;;;1.23;1.12;;;;;;;6.65;100.00;98614.37;5288756;33;33793;-87
2023/03/27 11:33:27;;;;;;;1.45;1.35;;;;;;;6.68;100.00;98605.94;5294624;33;33210;-91
2023/03/27 11:36:40;;;;;;;1.60;1.50;;;;;;;6.61;100.00;98610.41;5277852;33;31755;-88
2023/03/27 11:39:57;;;;;;;1.45;1.35;;;;;;;6.62;100.00;98617.44;5290642;33;34872;-87
2023/03/27 11:43:01;;;;;;;1.45;1.40;;;;;;;6.66;100.00;98613.34;5273134;33;34322;-87
2023/03/27 11:46:29;;;;;;;2.10;1.77;;;;;;;6.68;100.00;98619.31;5259882;33;33605;-88
2023/03/27 11:49:51;;;;;;;2.92;2.25;;;;;;;6.79;100.00;98619.59;5286728;33;33120;-87
2023/03/27 11:53:08;;;;;;;2.92;1.70;;;;;;;6.75;100.00;98614.81;5290863;33;32910;-87
2023/03/27 11:56:16;;;;;;;2.57;2.37;;;;;;;6.80;100.00;98617.75;5290179;33;33089;-88
2023/03/27 11:59:40;;;;;;;4.78;2.78;;;;;;;6.83;100.00;98614.69;5288046;33;34157;-87
2023/03/27 12:03:13;;;;;;;2.83;2.42;;;;;;;6.94;100.00;98619.47;5268042;33;33027;-87
2023/03/27 12:06:29;;;;;;;3.90;2.70;;;;;;;7.06;100.00;98610.88;5290028;33;33541;-88
2023/03/27 12:09:41;;;;;;;4.53;3.47;;;;;;;7.19;100.00;98617.09;5284575;33;33190;-87
2023/03/27 12:13:30;;;;;;;7.12;4.30;;;;;;;7.36;100.00;98620.28;5277634;33;33347;-87
2023/03/27 12:17:06;;;;;;;12.63;5.27;;;;;;;7.42;100.00;98629.34;5265949;33;33431;-87
2023/03/27 12:20:40;;;;;;;16.52;8.07;;;;;;;7.48;100.00;98626.69;5279756;33;33448;-87
2023/03/27 12:24:14;;;;;;;17.75;9.45;;;;;;;7.71;100.00;98636.25;5285423;33;35215;-87
2023/03/27 12:27:27;;;;;;;17.92;9.95;;;;;;;7.86;100.00;98641.44;5283276;33;33310;-88
2023/03/27 12:31:23;;;;;;;16.33;9.70;;;;;;;7.76;100.00;98652.53;5277439;33;33395;-87
2023/03/27 12:34:52;;;;;;;19.45;10.88;;;;;;;7.75;100.00;98650.91;5268086;33;33496;-87
2023/03/27 12:38:09;;;;;;;17.23;9.85;;;;;;;7.78;100.00;98650.50;5281284;33;33272;-87
2023/03/27 12:41:25;;;;;;;15.52;8.73;;;;;;;7.94;100.00;98650.09;5278781;33;33590;-87
2023/03/27 12:44:30;;;;;;;12.23;7.05;;;;;;;7.97;100.00;98656.91;5260014;33;34160;-87
2023/03/27 12:47:34;;;;;;;7.78;5.47;;;;;;;8.04;100.00;98668.47;5286462;33;33434;-87
2023/03/27 12:50:53;;;;;;;7.43;5.20;;;;;;;8.20;100.00;98675.31;5284118;33;34026;-87
2023/03/27 12:53:58;;;;;;;7.70;5.22;;;;;;;8.27;100.00;98681.47;5291309;33;34815;-90
2023/03/27 12:57:16;;;;;;;6.57;4.07;;;;;;;8.15;100.00;98678.59;5262676;33;33070;-91
2023/03/27 13:00:24;;;;;;;6.30;3.60;;;;;;;8.13;100.00;98685.19;5267336;33;34211;-87
2023/03/27 13:03:55;;;;;;;5.75;3.08;;;;;;;8.05;100.00;98691.56;5279674;33;33443;-88
2023/03/27 13:07:04;;;;;;;3.92;2.92;;;;;;;8.02;100.00;98710.72;5273797;33;33647;-87
2023/03/27 13:10:53;;;;;;;3.25;2.65;;;;;;;7.90;100.00;98723.91;5287992;33;33645;-87
2023/03/27 13:14:25;;;;;;;3.05;2.75;;;;;;;7.74;100.00;98721.56;5289068;33;33363;-87
2023/03/27 13:17:59;;;;;;;2.55;2.25;;;;;;;7.77;100.00;98750.63;5274196;33;33914;-87
2023/03/27 13:21:15;;;;;;;2.30;2.10;;;;;;;7.52;100.00;98754.81;5284798;33;33922;-87
2023/03/27 13:24:46;;;;;;;3.10;2.55;;;;;;;7.39;100.00;98753.72;5285533;33;33411;-87
2023/03/27 13:28:30;;;;;;;2.53;2.10;;;;;;;7.32;100.00;98765.44;5272020;33;33960;-87
2023/03/27 13:31:45;;;;;;;2.15;1.98;;;;;;;7.16;100.00;98763.88;5272275;33;34398;-87
2023/03/27 13:35:22;;;;;;;1.73;1.62;;;;;;;7.13;100.00;98796.37;5272859;33;33557;-87
2023/03/27 13:38:45;;;;;;;1.98;1.70;;;;;;;6.95;100.00;98797.69;5274141;33;32996;-87
2023/03/27 13:41:58;;;;;;;2.92;1.90;;;;;;;6.87;100.00;98818.41;5271909;33;34718;-87
2023/03/27 13:45:46;;;;;;;2.83;1.87;;;;;;;6.49;100.00;98814.16;5274687;33;34135;-87
2023/03/27 13:49:26;;;;;;;2.65;2.00;;;;;;;6.54;100.00;98822.41;5267629;33;33381;-86
2023/03/27 13:52:38;;;;;;;2.20;1.95;;;;;;;6.46;100.00;98835.91;5275987;33;34241;-87
2023/03/27 13:55:53;;;;;;;2.15;1.90;;;;;;;6.41;100.00;98840.19;5274398;33;33944;-87
2023/03/27 13:59:20;;;;;;;2.10;1.92;;;;;;;6.40;100.00;98838.50;5274208;33;33591;-86
2023/03/27 14:03:00;;;;;;;2.20;2.10;;;;;;;6.34;100.00;98856.13;5272636;33;33355;-87
2023/03/27 14:06:18;;;;;;;4.32;2.50;;;;;;;6.27;100.00;98872.09;5271651;33;33662;-87
2023/03/27 14:09:45;;;;;;;3.35;2.70;;;;;;;6.23;100.00;98904.69;5272191;33;33712;-87
2023/03/27 14:13:17;;;;;;;3.42;2.40;;;;;;;6.10;100.00;98918.72;5270117;33;33395;-87
2023/03/27 14:16:40;;;;;;;3.62;2.53;;;;;;;5.93;100.00;98947.47;5284950;33;33543;-87
2023/03/27 14:20:05;;;;;;;3.17;2.72;;;;;;;5.79;100.00;98940.22;5282033;33;33435;-87
2023/03/27 14:23:15;;;;;;;3.78;2.85;;;;;;;5.89;100.00;98949.63;5277467;33;33864;-87
2023/03/27 14:26:23;;;;;;;3.90;3.22;;;;;;;5.85;100.00;98940.34;5283077;33;33898;-86
2023/03/27 14:29:27;;;;;;;5.32;3.05;;;;;;;5.75;100.00;98957.63;5273780;33;33432;-87
2023/03/27 14:32:32;;;;;;;7.32;3.45;;;;;;;5.72;100.00;98976.69;5278099;33;33881;-89
2023/03/27 14:35:42;;;;;;;3.10;2.42;;;;;;;5.63;100.00;98992.78;5295921;33;34814;-91
2023/03/27 14:38:46;;;;;;;3.58;2.83;;;;;;;5.45;100.00;98992.28;5283655;33;34623;-87
2023/03/27 14:42:02;;;;;;;3.05;2.72;;;;;;;5.54;100.00;99009.06;5263855;33;34917;-87
2023/03/27 14:45:08;;;;;;;2.70;2.50;;;;;;;5.39;100.00;99011.66;5277052;33;33274;-87
2023/03/27 14:48:22;;;;;;;2.72;2.47;;;;;;;5.46;100.00;99025.94;5285673;33;33809;-87
2023/03/27 14:51:36;;;;;;;3.15;2.55;;;;;;;5.44;98.40;99049.31;5291232;33;33823;-87
2023/03/27 14:54:39;;;;;;;4.90;2.65;;;;;;;5.41;98.40;99036.31;5271833;33;33399;-86
2023/03/27 14:58:07;;;;;;;2.58;2.37;;;;;;;5.64;95.21;99028.31;5270016;33;33505;-87
2023/03/27 15:01:15;;;;;;;2.70;2.50;;;;;;;5.55;92.86;99040.87;5268129;33;146643;-87
2023/03/27 15:04:25;;;;;;;3.28;2.30;;;;;;;5.56;93.00;99055.91;5293734;33;34215;-87
2023/03/27 15:07:33;;;;;;;3.28;2.30;;;;;;;5.46;95.61;99071.31;5288162;33;34052;-87
2023/03/27 15:10:49;;;;;;;3.10;2.80;;;;;;;5.29;93.56;99081.25;5300456;33;34462;-87
2023/03/27 15:13:55;;;;;;;2.42;2.22;;;;;;;5.34;94.37;99078.91;5302631;33;34483;-87
2023/03/27 15:17:09;;;;;;;2.75;2.50;;;;;;;5.33;94.78;99087.09;5274302;33;35052;-87
2023/03/27 15:20:14;;;;;;;2.28;2.08;;;;;;;5.28;93.62;99084.13;5281033;33;33881;-87
2023/03/27 15:23:28;;;;;;;3.00;2.50;;;;;;;5.07;94.07;99130.91;5263501;33;33399;-90
2023/03/27 15:26:33;;;;;;;2.33;2.12;;;;;;;4.98;93.28;99127.44;5289065;33;33546;-92
2023/03/27 15:29:41;;;;;;;3.97;2.85;;;;;;;4.98;92.89;99142.63;5283448;33;34136;-88
2023/03/27 15:32:49;;;;;;;2.70;2.28;;;;;;;4.89;93.61;99133.81;5280922;33;33603;-87
2023/03/27 15:35:54;;;;;;;2.50;2.30;;;;;;;4.80;91.49;99158.00;5274200;33;34851;-88
2023/03/27 15:38:59;;;;;;;2.53;2.33;;;;;;;4.63;92.70;99171.38;5288466;33;33402;-87
2023/03/27 15:42:09;;;;;;;3.28;2.35;;;;;;;4.66;92.57;99167.53;5271883;33;34369;-87
2023/03/27 15:45:17;;;;;;;3.53;2.10;;;;;;;4.68;92.59;99184.19;5288007;33;34880;-87
2023/03/27 15:48:27;;;;;;;3.83;2.28;;;;;;;4.48;93.72;99176.56;5278812;33;33354;-87
2023/03/27 15:51:31;;;;;;;2.92;2.47;;;;;;;4.55;91.23;99198.03;5274571;33;34154;-87
2023/03/27 15:54:34;;;;;;;2.47;2.10;;;;;;;4.45;92.82;99202.72;5280452;33;34241;-87
2023/03/27 15:57:39;;;;;;;3.62;2.50;;;;;;;4.34;90.87;99229.69;5277652;33;33262;-87
2023/03/27 16:00:46;;;;;;;2.35;2.17;;;;;;;4.34;91.88;99227.03;5278078;33;33414;-87
2023/03/27 16:03:50;;;;;;;3.08;2.40;;;;;;;4.27;93.03;99232.16;5290789;33;33657;-87
